createdAt,value
2019-03-09T00:03:10.433Z,"    0"
2019-03-09T00:08:06.580Z,"    0"
2019-03-09T00:13:02.384Z,"    0"
2019-03-09T00:17:58.039Z,"    0"
2019-03-09T00:22:54.099Z,"    0"
2019-03-09T00:27:49.489Z,"    0"
2019-03-09T00:32:45.330Z,"    0"
2019-03-09T00:37:41.072Z,"    0"
2019-03-09T00:42:36.817Z,"    0"
2019-03-09T00:47:32.577Z,"    0"
2019-03-09T00:52:28.119Z,"    0"
2019-03-09T00:57:23.651Z,"    0"
2019-03-09T01:02:19.377Z,"    0"
2019-03-09T01:07:15.358Z,"    0"
2019-03-09T01:12:11.000Z,"    0"
2019-03-09T01:17:07.608Z,"    0"
2019-03-09T01:22:03.863Z,"    0"
2019-03-09T01:27:00.250Z,"    0"
2019-03-09T01:31:55.592Z,"    0"
2019-03-09T01:36:50.997Z,"    0"
2019-03-09T01:41:46.702Z,"    0"
2019-03-09T01:46:43.677Z,"    0"
2019-03-09T01:51:39.621Z,"    0"
2019-03-09T01:56:35.099Z,"    0"
2019-03-09T02:01:30.917Z,"    0"
2019-03-09T02:06:26.893Z,"    0"
2019-03-09T02:11:22.688Z,"    0"
2019-03-09T02:16:19.249Z,"    0"
2019-03-09T02:21:15.708Z,"    0"
2019-03-09T02:26:11.141Z,"    0"
2019-03-09T02:31:06.718Z,"    0"
2019-03-09T02:36:03.525Z,"    0"
2019-03-09T02:40:59.393Z,"    0"
2019-03-09T02:45:55.119Z,"    0"
2019-03-09T02:50:50.814Z,"    0"
2019-03-09T02:55:46.723Z,"    0"
2019-03-09T03:00:42.386Z,"    0"
2019-03-09T03:05:40.037Z,"    0"
2019-03-09T03:10:35.064Z,"    0"
2019-03-09T03:15:31.809Z,"    0"
2019-03-09T03:20:27.064Z,"    0"
2019-03-09T03:25:22.861Z,"    0"
2019-03-09T03:30:18.641Z,"    0"
2019-03-09T03:35:14.327Z,"    0"
2019-03-09T03:40:10.187Z,"    0"
2019-03-09T03:45:06.029Z,"    0"
2019-03-09T03:50:01.942Z,"    0"
2019-03-09T03:54:58.749Z,"    0"
2019-03-09T03:59:53.974Z,"    0"
2019-03-09T04:04:51.808Z,"    0"
2019-03-09T04:09:47.331Z,"    0"
2019-03-09T04:14:43.290Z,"    0"
2019-03-09T04:19:39.724Z,"    0"
2019-03-09T04:24:35.357Z,"    0"
2019-03-09T04:29:30.900Z,"    0"
2019-03-09T04:34:26.667Z,"    0"
2019-03-09T04:39:22.444Z,"    0"
2019-03-09T04:44:18.197Z,"    0"
2019-03-09T04:49:15.034Z,"    0"
2019-03-09T04:54:11.521Z,"    0"
2019-03-09T04:59:07.662Z,"    0"
2019-03-09T05:04:03.283Z,"    0"
2019-03-09T05:08:59.526Z,"    0"
2019-03-09T05:13:55.162Z,"    0"
2019-03-09T05:18:51.167Z,"    0"
2019-03-09T05:23:47.958Z,"    0"
2019-03-09T05:28:44.713Z,"    0"
2019-03-09T05:33:41.460Z,"    4"
2019-03-09T05:38:36.470Z,"   12"
2019-03-09T05:43:32.192Z,"   24"
2019-03-09T05:48:29.190Z,"   64"
2019-03-09T05:53:25.609Z,"  116"
2019-03-09T05:58:20.572Z,"  184"
2019-03-09T06:03:16.393Z,"  272"
2019-03-09T06:08:12.147Z,"  384"
2019-03-09T06:13:09.486Z,"  616"
2019-03-09T06:18:06.438Z,"  684"
2019-03-09T06:23:02.019Z,"  664"
2019-03-09T06:27:57.494Z," 1188"
2019-03-09T06:32:53.329Z," 1312"
2019-03-09T06:37:49.648Z," 1772"
2019-03-09T06:42:46.459Z," 2152"
2019-03-09T06:47:42.763Z," 2380"
2019-03-09T06:52:38.219Z," 2064"
2019-03-09T06:57:35.078Z," 2584"
2019-03-09T07:02:30.556Z," 2744"
2019-03-09T07:07:26.394Z," 2956"
2019-03-09T07:12:23.050Z," 3716"
2019-03-09T07:17:18.963Z," 3232"
2019-03-09T07:22:14.840Z," 4408"
2019-03-09T07:27:10.520Z," 3684"
2019-03-09T07:32:06.480Z," 5220"
2019-03-09T07:37:02.546Z," 5756"
2019-03-09T07:41:59.611Z," 4572"
2019-03-09T07:46:56.367Z," 7488"
2019-03-09T07:51:52.564Z," 4856"
2019-03-09T07:56:48.323Z," 4936"
2019-03-09T08:01:44.804Z," 5192"
2019-03-09T08:06:40.602Z," 4268"
2019-03-09T08:11:36.462Z," 2876"
2019-03-09T08:16:35.959Z," 3632"
2019-03-09T08:21:31.099Z," 8384"
2019-03-09T08:26:27.254Z," 9516"
2019-03-09T08:31:24.601Z," 7204"
2019-03-09T08:36:21.351Z," 6176"
2019-03-09T08:41:16.711Z," 6748"
2019-03-09T08:46:13.631Z," 7628"
2019-03-09T08:51:10.161Z," 7316"
2019-03-09T08:56:06.644Z," 7036"
2019-03-09T09:01:02.055Z," 7788"
2019-03-09T09:05:58.957Z,10452
2019-03-09T09:10:54.393Z," 8208"
2019-03-09T09:15:50.184Z," 8468"
2019-03-09T09:20:45.750Z," 8648"
2019-03-09T09:25:41.843Z," 8288"
2019-03-09T09:30:38.571Z," 8328"
2019-03-09T09:35:34.075Z," 8468"
2019-03-09T09:40:29.962Z,11132
2019-03-09T09:45:26.102Z," 5516"
2019-03-09T09:50:22.352Z," 9936"
2019-03-09T09:55:18.197Z," 7716"
2019-03-09T10:00:13.791Z," 6168"
2019-03-09T10:05:09.177Z," 5636"
2019-03-09T10:10:05.210Z," 4756"
2019-03-09T10:15:01.600Z," 5632"
2019-03-09T10:19:57.463Z," 6692"
2019-03-09T10:24:53.394Z," 7020"
2019-03-09T10:29:49.382Z," 8940"
2019-03-09T10:34:46.175Z,10492
2019-03-09T10:39:42.218Z,11796
2019-03-09T10:44:39.444Z,12384
2019-03-09T10:49:36.130Z,13040
2019-03-09T10:54:35.939Z,10584
2019-03-09T10:59:31.206Z," 9604"
2019-03-09T11:04:27.927Z,10100
2019-03-09T11:09:23.606Z,10300
2019-03-09T11:14:19.513Z," 8884"
2019-03-09T11:19:15.350Z," 9280"
2019-03-09T11:24:11.285Z,17120
2019-03-09T11:29:07.764Z,12516
2019-03-09T11:34:03.392Z,10656
2019-03-09T11:38:59.492Z,22112
2019-03-09T11:43:56.681Z,16928
2019-03-09T11:48:53.367Z,11032
2019-03-09T11:53:48.624Z," 5932"
2019-03-09T11:58:44.922Z,11236
2019-03-09T12:03:40.676Z," 8636"
2019-03-09T12:08:36.361Z," 2624"
2019-03-09T12:13:31.681Z,16032
2019-03-09T12:18:28.785Z,22208
2019-03-09T12:23:24.676Z,13908
2019-03-09T12:28:24.086Z," 9108"
2019-03-09T12:33:18.797Z,15180
2019-03-09T12:38:15.703Z,18880
2019-03-09T12:43:11.294Z,12384
2019-03-09T12:48:07.343Z,10748
2019-03-09T12:53:03.206Z," 9076"
2019-03-09T12:57:59.791Z," 9176"
2019-03-09T13:02:55.159Z," 7104"
2019-03-09T13:07:50.783Z," 4488"
2019-03-09T13:12:46.125Z," 9924"
2019-03-09T13:17:43.773Z," 8252"
2019-03-09T13:22:39.351Z," 9596"
2019-03-09T13:27:35.186Z," 6508"
2019-03-09T13:32:30.619Z," 5436"
2019-03-09T13:37:26.289Z," 3288"
2019-03-09T13:42:21.856Z," 2008"
2019-03-09T13:47:17.135Z," 2788"
2019-03-09T13:52:14.268Z," 4284"
2019-03-09T13:57:09.878Z," 3128"
2019-03-09T14:02:05.699Z," 4148"
2019-03-09T14:07:02.225Z," 8044"
2019-03-09T14:11:58.096Z," 4552"
2019-03-09T14:16:53.810Z," 4256"
2019-03-09T14:21:49.492Z," 4120"
2019-03-09T14:26:45.273Z," 4484"
2019-03-09T14:31:41.163Z," 3416"
2019-03-09T14:36:36.977Z," 3076"
2019-03-09T14:41:32.849Z," 2752"
2019-03-09T14:46:28.559Z," 3276"
2019-03-09T14:51:25.422Z," 3460"
2019-03-09T14:56:21.047Z," 1636"
2019-03-09T15:01:16.597Z,"  688"
2019-03-09T15:06:12.209Z,"  524"
2019-03-09T15:11:07.756Z,"  296"
2019-03-09T15:16:03.925Z,"  364"
2019-03-09T15:20:59.128Z,"  392"
2019-03-09T15:25:55.516Z,"  484"
2019-03-09T15:30:50.920Z,"  372"
2019-03-09T15:35:46.579Z,"  312"
2019-03-09T15:40:43.148Z,"  480"
2019-03-09T15:45:39.030Z,"  424"
2019-03-09T15:50:36.004Z," 1496"
2019-03-09T15:55:31.342Z," 2364"
2019-03-09T16:00:27.205Z," 2548"
2019-03-09T16:05:22.615Z," 1200"
2019-03-09T16:10:19.262Z," 2184"
2019-03-09T16:15:14.633Z," 1656"
2019-03-09T16:20:10.403Z," 1440"
2019-03-09T16:25:06.193Z," 1248"
2019-03-09T16:30:01.902Z," 1648"
2019-03-09T16:34:57.839Z," 1484"
2019-03-09T16:39:54.417Z," 1344"
2019-03-09T16:44:50.548Z,"  940"
2019-03-09T16:49:46.678Z,"  496"
2019-03-09T16:54:43.365Z,"  380"
2019-03-09T16:59:38.820Z,"  272"
2019-03-09T17:04:35.216Z,"  156"
2019-03-09T17:09:31.042Z,"  164"
2019-03-09T17:14:26.766Z,"  168"
2019-03-09T17:19:22.419Z,"  112"
2019-03-09T17:24:18.235Z,"   84"
2019-03-09T17:29:14.681Z,"   52"
2019-03-09T17:34:10.225Z,"   28"
2019-03-09T17:39:07.023Z,"   12"
2019-03-09T17:49:02.384Z,"    4"
2019-03-09T17:53:57.933Z,"    0"
2019-03-09T17:58:53.798Z,"    0"
2019-03-09T18:03:49.471Z,"    0"
2019-03-09T18:08:44.997Z,"    0"
2019-03-09T18:13:41.375Z,"    0"
2019-03-09T18:18:36.770Z,"    0"
2019-03-09T18:23:32.509Z,"    0"
2019-03-09T18:28:28.997Z,"    0"
2019-03-09T18:33:25.256Z,"    0"
2019-03-09T18:38:20.584Z,"    0"
2019-03-09T18:43:17.252Z,"    0"
2019-03-09T18:48:13.660Z,"    0"
2019-03-09T18:53:09.033Z,"    0"
2019-03-09T18:58:04.821Z,"    0"
2019-03-09T19:03:00.388Z,"    0"
2019-03-09T19:07:57.158Z,"    0"
2019-03-09T19:12:52.575Z,"    0"
2019-03-09T19:17:49.243Z,"    0"
2019-03-09T19:22:45.499Z,"    0"
2019-03-09T19:27:41.008Z,"    0"
2019-03-09T19:32:36.643Z,"    0"
2019-03-09T19:37:33.199Z,"    0"
2019-03-09T19:42:28.468Z,"    0"
2019-03-09T19:47:24.250Z,"    0"
2019-03-09T19:52:20.114Z,"    0"
2019-03-09T19:57:15.874Z,"    0"
2019-03-09T20:02:12.636Z,"    0"
2019-03-09T20:07:08.081Z,"    0"
2019-03-09T20:12:03.974Z,"    0"
2019-03-09T20:16:59.776Z,"    0"
2019-03-09T20:21:55.017Z,"    0"
2019-03-09T20:26:50.906Z,"    0"
2019-03-09T20:31:47.534Z,"    0"
2019-03-09T20:36:43.917Z,"    0"
2019-03-09T20:41:39.407Z,"    0"
2019-03-09T20:46:41.836Z,"    0"
2019-03-09T20:51:37.441Z,"    0"
2019-03-09T20:56:32.511Z,"    0"
2019-03-09T21:01:28.340Z,"    0"
2019-03-09T21:06:24.150Z,"    0"
2019-03-09T21:11:20.947Z,"    0"
2019-03-09T21:16:18.134Z,"    0"
2019-03-09T21:21:14.380Z,"    0"
2019-03-09T21:26:09.907Z,"    0"
2019-03-09T21:31:05.545Z,"    0"
2019-03-09T21:36:01.162Z,"    0"
2019-03-09T21:40:57.062Z,"    0"
2019-03-09T21:45:52.931Z,"    0"
2019-03-09T21:50:48.352Z,"    0"
2019-03-09T21:55:45.464Z,"    0"
2019-03-09T22:00:40.891Z,"    0"
2019-03-09T22:05:36.539Z,"    0"
2019-03-09T22:10:32.260Z,"    0"
2019-03-09T22:15:28.793Z,"    0"
2019-03-09T22:20:24.258Z,"    0"
2019-03-09T22:25:20.528Z,"    0"
2019-03-09T22:30:16.296Z,"    0"
2019-03-09T22:35:13.140Z,"    0"
2019-03-09T22:40:09.005Z,"    0"
2019-03-09T22:45:05.506Z,"    0"
2019-03-09T22:50:00.756Z,"    0"
2019-03-09T22:54:56.416Z,"    0"
2019-03-09T22:59:51.991Z,"    0"
2019-03-09T23:04:48.722Z,"    0"
2019-03-09T23:09:44.513Z,"    0"
2019-03-09T23:14:41.145Z,"    0"
2019-03-09T23:19:36.685Z,"    0"
2019-03-09T23:24:33.309Z,"    0"
2019-03-09T23:29:28.720Z,"    0"
2019-03-09T23:34:25.339Z,"    0"
2019-03-09T23:39:20.521Z,"    0"
2019-03-09T23:44:16.854Z,"    0"
2019-03-09T23:49:12.470Z,"    0"
2019-03-09T23:54:09.106Z,"    0"
2019-03-09T23:59:04.329Z,"    0"
